sensor_id;sensor_type;location;lat;lon;timestamp;temperature;humidity
7476;DHT22;3779;49.216;8.650;2023-04-03T01:26:22;19.30;32.90
7476;DHT22;3779;49.216;8.650;2023-04-03T01:29:10;19.30;32.20
7476;DHT22;3779;49.216;8.650;2023-04-03T01:34:49;19.30;32.20
7476;DHT22;3779;49.216;8.650;2023-04-03T01:37:43;19.30;31.40
7476;DHT22;3779;49.216;8.650;2023-04-03T01:40:32;19.40;32.20
7476;DHT22;3779;49.216;8.650;2023-04-03T01:43:21;19.30;31.40
7476;DHT22;3779;49.216;8.650;2023-04-03T01:52:07;19.20;32.50
7476;DHT22;3779;49.216;8.650;2023-04-03T01:54:55;19.30;32.20
7476;DHT22;3779;49.216;8.650;2023-04-03T02:00:44;19.30;31.60
7476;DHT22;3779;49.216;8.650;2023-04-03T02:03:32;19.20;30.80
7476;DHT22;3779;49.216;8.650;2023-04-03T02:09:27;19.10;31.30
7476;DHT22;3779;49.216;8.650;2023-04-03T02:12:31;19.10;32.60
7476;DHT22;3779;49.216;8.650;2023-04-03T02:15:23;19.20;31.90
7476;DHT22;3779;49.216;8.650;2023-04-03T02:24:23;19.10;30.70
7476;DHT22;3779;49.216;8.650;2023-04-03T02:27:17;19.20;30.80
7476;DHT22;3779;49.216;8.650;2023-04-03T02:33:13;19.20;31.90
7476;DHT22;3779;49.216;8.650;2023-04-03T02:36:02;19.20;32.90
7476;DHT22;3779;49.216;8.650;2023-04-03T02:44:55;19.20;30.90
7476;DHT22;3779;49.216;8.650;2023-04-03T02:47:41;19.10;30.10
7476;DHT22;3779;49.216;8.650;2023-04-03T02:50:21;19.10;30.00
7476;DHT22;3779;49.216;8.650;2023-04-03T02:53:33;19.10;30.60
7476;DHT22;3779;49.216;8.650;2023-04-03T02:56:30;19.10;35.10
7476;DHT22;3779;49.216;8.650;2023-04-03T02:59:17;19.20;30.90
7476;DHT22;3779;49.216;8.650;2023-04-03T03:08:15;19.20;31.80
7476;DHT22;3779;49.216;8.650;2023-04-03T03:11:26;19.10;30.90
7476;DHT22;3779;49.216;8.650;2023-04-03T03:14:13;19.00;30.90
7476;DHT22;3779;49.216;8.650;2023-04-03T03:22:44;18.90;29.90
7476;DHT22;3779;49.216;8.650;2023-04-03T03:28:39;19.00;30.40
7476;DHT22;3779;49.216;8.650;2023-04-03T03:37:33;19.00;30.50
7476;DHT22;3779;49.216;8.650;2023-04-03T03:49:07;18.80;30.50
7476;DHT22;3779;49.216;8.650;2023-04-03T03:54:52;18.90;32.20
7476;DHT22;3779;49.216;8.650;2023-04-03T04:01:07;19.00;31.80
7476;DHT22;3779;49.216;8.650;2023-04-03T04:04:01;19.00;30.00
7476;DHT22;3779;49.216;8.650;2023-04-03T04:12:34;19.00;30.50
7476;DHT22;3779;49.216;8.650;2023-04-03T04:15:22;19.00;30.00
7476;DHT22;3779;49.216;8.650;2023-04-03T04:18:09;19.00;30.10
7476;DHT22;3779;49.216;8.650;2023-04-03T12:24:31;19.50;31.70
7476;DHT22;3779;49.216;8.650;2023-04-03T12:30:35;19.50;28.90
7476;DHT22;3779;49.216;8.650;2023-04-03T12:33:44;19.50;32.30
7476;DHT22;3779;49.216;8.650;2023-04-03T12:50:49;19.70;33.70
7476;DHT22;3779;49.216;8.650;2023-04-03T12:53:36;19.80;32.70
7476;DHT22;3779;49.216;8.650;2023-04-03T12:56:29;19.70;34.20
7476;DHT22;3779;49.216;8.650;2023-04-03T12:59:20;19.70;36.70
7476;DHT22;3779;49.216;8.650;2023-04-03T13:02:26;19.70;34.60
7476;DHT22;3779;49.216;8.650;2023-04-03T13:05:17;19.60;35.10
7476;DHT22;3779;49.216;8.650;2023-04-03T13:08:09;19.90;35.50
7476;DHT22;3779;49.216;8.650;2023-04-03T13:14:00;19.80;32.80
7476;DHT22;3779;49.216;8.650;2023-04-03T13:17:10;19.80;36.70
7476;DHT22;3779;49.216;8.650;2023-04-03T13:20:18;19.60;32.80
7476;DHT22;3779;49.216;8.650;2023-04-03T13:23:10;19.60;38.90
7476;DHT22;3779;49.216;8.650;2023-04-03T13:25:59;19.70;37.50
7476;DHT22;3779;49.216;8.650;2023-04-03T13:28:49;19.80;35.70
7476;DHT22;3779;49.216;8.650;2023-04-03T13:31:40;19.80;31.60
7476;DHT22;3779;49.216;8.650;2023-04-03T13:34:29;19.80;33.70
7476;DHT22;3779;49.216;8.650;2023-04-03T13:40:27;19.70;38.50
7476;DHT22;3779;49.216;8.650;2023-04-03T13:43:23;19.80;35.30
7476;DHT22;3779;49.216;8.650;2023-04-03T13:48:56;19.80;35.60
7476;DHT22;3779;49.216;8.650;2023-04-03T13:51:42;19.80;29.50
7476;DHT22;3779;49.216;8.650;2023-04-03T13:54:34;19.70;30.40
7476;DHT22;3779;49.216;8.650;2023-04-03T13:57:33;19.70;34.00
7476;DHT22;3779;49.216;8.650;2023-04-03T14:00:48;19.70;35.80
7476;DHT22;3779;49.216;8.650;2023-04-03T14:06:38;19.80;35.80
7476;DHT22;3779;49.216;8.650;2023-04-03T14:09:26;19.70;29.20
7476;DHT22;3779;49.216;8.650;2023-04-03T14:12:17;19.60;38.00
7476;DHT22;3779;49.216;8.650;2023-04-03T14:15:27;19.60;31.90
7476;DHT22;3779;49.216;8.650;2023-04-03T14:18:17;19.70;33.10
7476;DHT22;3779;49.216;8.650;2023-04-03T14:21:03;19.70;33.20
7476;DHT22;3779;49.216;8.650;2023-04-03T14:23:50;19.70;32.60
7476;DHT22;3779;49.216;8.650;2023-04-03T14:26:39;19.80;29.30
7476;DHT22;3779;49.216;8.650;2023-04-03T14:30:00;19.70;28.70
7476;DHT22;3779;49.216;8.650;2023-04-03T14:33:20;19.50;28.00
7476;DHT22;3779;49.216;8.650;2023-04-03T14:36:21;19.50;29.80
7476;DHT22;3779;49.216;8.650;2023-04-03T14:39:15;19.50;34.00
7476;DHT22;3779;49.216;8.650;2023-04-03T14:42:02;19.60;30.00
7476;DHT22;3779;49.216;8.650;2023-04-03T14:44:48;19.40;23.40
7476;DHT22;3779;49.216;8.650;2023-04-03T14:47:41;19.50;26.90
7476;DHT22;3779;49.216;8.650;2023-04-03T14:50:28;19.20;23.30
7476;DHT22;3779;49.216;8.650;2023-04-03T14:53:14;19.20;28.40
7476;DHT22;3779;49.216;8.650;2023-04-03T14:56:00;19.10;23.00
7476;DHT22;3779;49.216;8.650;2023-04-03T14:58:46;19.10;28.80
7476;DHT22;3779;49.216;8.650;2023-04-03T15:01:35;19.30;32.80
7476;DHT22;3779;49.216;8.650;2023-04-03T15:04:21;19.50;32.30
7476;DHT22;3779;49.216;8.650;2023-04-03T15:07:08;19.60;31.90
7476;DHT22;3779;49.216;8.650;2023-04-03T15:09:54;19.60;30.80
7476;DHT22;3779;49.216;8.650;2023-04-03T15:12:42;19.50;26.70
7476;DHT22;3779;49.216;8.650;2023-04-03T15:15:29;19.60;30.70
7476;DHT22;3779;49.216;8.650;2023-04-03T15:18:19;19.60;31.80
7476;DHT22;3779;49.216;8.650;2023-04-03T15:21:05;19.60;30.60
7476;DHT22;3779;49.216;8.650;2023-04-03T15:23:51;19.50;24.60
7476;DHT22;3779;49.216;8.650;2023-04-03T15:26:37;19.50;29.10
7476;DHT22;3779;49.216;8.650;2023-04-03T15:29:23;19.60;27.60
7476;DHT22;3779;49.216;8.650;2023-04-03T15:32:10;19.60;31.80
7476;DHT22;3779;49.216;8.650;2023-04-03T15:34:55;19.70;31.20
7476;DHT22;3779;49.216;8.650;2023-04-03T15:37:43;19.70;34.20
7476;DHT22;3779;49.216;8.650;2023-04-03T15:40:29;19.70;36.50
7476;DHT22;3779;49.216;8.650;2023-04-03T15:43:15;19.80;34.60
7476;DHT22;3779;49.216;8.650;2023-04-03T15:46:01;19.70;27.00
7476;DHT22;3779;49.216;8.650;2023-04-03T15:48:47;19.70;31.40
7476;DHT22;3779;49.216;8.650;2023-04-03T15:51:35;19.80;33.20
7476;DHT22;3779;49.216;8.650;2023-04-03T15:54:21;19.70;31.10
7476;DHT22;3779;49.216;8.650;2023-04-03T15:57:12;19.70;36.40
7476;DHT22;3779;49.216;8.650;2023-04-03T15:59:58;19.70;33.20
7476;DHT22;3779;49.216;8.650;2023-04-03T16:02:45;19.80;32.90
7476;DHT22;3779;49.216;8.650;2023-04-03T16:05:32;19.80;33.10
7476;DHT22;3779;49.216;8.650;2023-04-03T16:08:18;19.80;35.60
7476;DHT22;3779;49.216;8.650;2023-04-03T16:11:04;19.90;30.40
7476;DHT22;3779;49.216;8.650;2023-04-03T16:13:50;19.90;29.70
7476;DHT22;3779;49.216;8.650;2023-04-03T16:16:36;19.80;32.60
7476;DHT22;3779;49.216;8.650;2023-04-03T16:19:23;19.80;29.60
7476;DHT22;3779;49.216;8.650;2023-04-03T16:22:09;19.80;26.90
7476;DHT22;3779;49.216;8.650;2023-04-03T16:24:55;19.70;26.90
7476;DHT22;3779;49.216;8.650;2023-04-03T16:27:41;19.40;22.30
7476;DHT22;3779;49.216;8.650;2023-04-03T16:30:43;19.40;27.10
7476;DHT22;3779;49.216;8.650;2023-04-03T16:33:33;19.30;25.60
7476;DHT22;3779;49.216;8.650;2023-04-03T16:36:19;19.30;29.20
7476;DHT22;3779;49.216;8.650;2023-04-03T16:39:05;19.50;29.10
7476;DHT22;3779;49.216;8.650;2023-04-03T16:41:51;19.60;29.60
7476;DHT22;3779;49.216;8.650;2023-04-03T16:44:37;19.70;29.60
7476;DHT22;3779;49.216;8.650;2023-04-03T16:47:23;19.70;29.90
7476;DHT22;3779;49.216;8.650;2023-04-03T16:50:09;19.70;30.80
7476;DHT22;3779;49.216;8.650;2023-04-03T16:52:56;19.70;27.30
7476;DHT22;3779;49.216;8.650;2023-04-03T16:55:43;19.70;30.30
7476;DHT22;3779;49.216;8.650;2023-04-03T16:58:29;19.80;29.50
7476;DHT22;3779;49.216;8.650;2023-04-03T17:01:17;19.80;26.70
7476;DHT22;3779;49.216;8.650;2023-04-03T17:04:03;19.70;26.30
7476;DHT22;3779;49.216;8.650;2023-04-03T17:06:49;19.70;27.20
7476;DHT22;3779;49.216;8.650;2023-04-03T17:09:37;19.70;25.10
7476;DHT22;3779;49.216;8.650;2023-04-03T17:12:23;19.60;30.30
7476;DHT22;3779;49.216;8.650;2023-04-03T17:15:10;19.70;31.80
7476;DHT22;3779;49.216;8.650;2023-04-03T17:17:55;19.70;30.40
7476;DHT22;3779;49.216;8.650;2023-04-03T17:20:42;19.80;27.40
7476;DHT22;3779;49.216;8.650;2023-04-03T17:23:29;19.70;24.90
7476;DHT22;3779;49.216;8.650;2023-04-03T17:26:15;19.60;26.10
7476;DHT22;3779;49.216;8.650;2023-04-03T17:29:04;19.60;27.30
7476;DHT22;3779;49.216;8.650;2023-04-03T17:31:50;19.50;24.50
7476;DHT22;3779;49.216;8.650;2023-04-03T17:34:36;19.50;27.60
7476;DHT22;3779;49.216;8.650;2023-04-03T17:37:22;19.60;27.60
7476;DHT22;3779;49.216;8.650;2023-04-03T17:43:07;19.70;28.00
7476;DHT22;3779;49.216;8.650;2023-04-03T17:45:55;19.60;26.30
7476;DHT22;3779;49.216;8.650;2023-04-03T17:48:48;19.60;24.00
7476;DHT22;3779;49.216;8.650;2023-04-03T17:51:34;19.50;24.70
7476;DHT22;3779;49.216;8.650;2023-04-03T17:54:29;19.40;24.90
7476;DHT22;3779;49.216;8.650;2023-04-03T17:57:40;19.50;25.80
7476;DHT22;3779;49.216;8.650;2023-04-03T18:00:28;19.00;24.40
7476;DHT22;3779;49.216;8.650;2023-04-03T18:03:14;19.30;25.60
7476;DHT22;3779;49.216;8.650;2023-04-03T18:06:03;19.30;29.20
7476;DHT22;3779;49.216;8.650;2023-04-03T18:08:54;19.40;26.20
7476;DHT22;3779;49.216;8.650;2023-04-03T18:11:42;19.40;25.60
7476;DHT22;3779;49.216;8.650;2023-04-03T18:14:29;19.50;28.30
7476;DHT22;3779;49.216;8.650;2023-04-03T18:17:15;19.50;26.50
7476;DHT22;3779;49.216;8.650;2023-04-03T18:20:01;19.70;28.20
7476;DHT22;3779;49.216;8.650;2023-04-03T18:27:58;19.60;27.80
7476;DHT22;3779;49.216;8.650;2023-04-03T20:50:06;19.50;32.90
7476;DHT22;3779;49.216;8.650;2023-04-03T20:52:53;19.50;31.30
7476;DHT22;3779;49.216;8.650;2023-04-03T20:55:39;19.50;28.30
7476;DHT22;3779;49.216;8.650;2023-04-03T20:58:27;19.50;28.30
7476;DHT22;3779;49.216;8.650;2023-04-03T21:01:20;19.50;28.20
7476;DHT22;3779;49.216;8.650;2023-04-03T21:04:22;19.40;28.80
7476;DHT22;3779;49.216;8.650;2023-04-03T21:20:06;19.40;27.60
7476;DHT22;3779;49.216;8.650;2023-04-03T21:22:53;19.40;30.40
7476;DHT22;3779;49.216;8.650;2023-04-03T21:25:39;19.40;29.10
7476;DHT22;3779;49.216;8.650;2023-04-03T21:28:25;19.40;29.50
7476;DHT22;3779;49.216;8.650;2023-04-03T21:31:12;19.40;27.50
7476;DHT22;3779;49.216;8.650;2023-04-03T21:33:59;19.40;29.60
7476;DHT22;3779;49.216;8.650;2023-04-03T21:36:46;19.40;27.20
7476;DHT22;3779;49.216;8.650;2023-04-03T21:39:34;19.30;28.00
7476;DHT22;3779;49.216;8.650;2023-04-03T21:42:20;19.30;27.30
7476;DHT22;3779;49.216;8.650;2023-04-03T21:45:06;19.30;27.70
7476;DHT22;3779;49.216;8.650;2023-04-03T21:47:52;19.30;27.00
7476;DHT22;3779;49.216;8.650;2023-04-03T21:50:38;19.20;27.00
7476;DHT22;3779;49.216;8.650;2023-04-03T21:53:24;19.20;26.80
7476;DHT22;3779;49.216;8.650;2023-04-03T21:56:14;19.20;26.80
7476;DHT22;3779;49.216;8.650;2023-04-03T21:59:00;19.10;26.50
7476;DHT22;3779;49.216;8.650;2023-04-03T22:01:47;19.20;29.30
7476;DHT22;3779;49.216;8.650;2023-04-03T22:04:33;19.30;30.20
7476;DHT22;3779;49.216;8.650;2023-04-03T22:07:20;19.30;27.50
7476;DHT22;3779;49.216;8.650;2023-04-03T22:10:06;19.20;26.40
7476;DHT22;3779;49.216;8.650;2023-04-03T22:12:52;19.20;27.00
7476;DHT22;3779;49.216;8.650;2023-04-03T22:15:38;19.10;25.40
7476;DHT22;3779;49.216;8.650;2023-04-03T22:18:28;19.10;27.90
7476;DHT22;3779;49.216;8.650;2023-04-03T22:21:14;19.10;25.80
7476;DHT22;3779;49.216;8.650;2023-04-03T22:24:00;19.10;27.80
7476;DHT22;3779;49.216;8.650;2023-04-03T22:26:46;19.20;25.90
7476;DHT22;3779;49.216;8.650;2023-04-03T22:29:32;19.10;25.70
7476;DHT22;3779;49.216;8.650;2023-04-03T22:32:18;19.10;26.30
7476;DHT22;3779;49.216;8.650;2023-04-03T22:35:04;19.20;27.30
7476;DHT22;3779;49.216;8.650;2023-04-03T22:37:51;19.10;25.20
7476;DHT22;3779;49.216;8.650;2023-04-03T22:40:37;19.00;26.60
7476;DHT22;3779;49.216;8.650;2023-04-03T22:43:23;19.00;30.10
7476;DHT22;3779;49.216;8.650;2023-04-03T22:46:09;19.10;27.50
7476;DHT22;3779;49.216;8.650;2023-04-03T22:48:55;19.20;26.40
7476;DHT22;3779;49.216;8.650;2023-04-03T22:51:42;19.10;26.60
7476;DHT22;3779;49.216;8.650;2023-04-03T22:54:28;19.10;27.10
7476;DHT22;3779;49.216;8.650;2023-04-03T22:57:13;19.10;25.70
7476;DHT22;3779;49.216;8.650;2023-04-03T22:59:59;19.00;26.80
7476;DHT22;3779;49.216;8.650;2023-04-03T23:02:45;19.10;26.80
7476;DHT22;3779;49.216;8.650;2023-04-03T23:05:31;19.10;25.30
7476;DHT22;3779;49.216;8.650;2023-04-03T23:08:18;19.00;25.60
7476;DHT22;3779;49.216;8.650;2023-04-03T23:11:04;19.00;27.60
7476;DHT22;3779;49.216;8.650;2023-04-03T23:13:51;19.00;25.30
7476;DHT22;3779;49.216;8.650;2023-04-03T23:16:37;19.00;24.20
7476;DHT22;3779;49.216;8.650;2023-04-03T23:19:23;18.90;25.80
7476;DHT22;3779;49.216;8.650;2023-04-03T23:22:09;19.00;25.70
7476;DHT22;3779;49.216;8.650;2023-04-03T23:24:56;19.00;26.70
7476;DHT22;3779;49.216;8.650;2023-04-03T23:27:49;18.90;25.10
7476;DHT22;3779;49.216;8.650;2023-04-03T23:30:35;19.00;26.80
7476;DHT22;3779;49.216;8.650;2023-04-03T23:33:21;18.90;27.80
7476;DHT22;3779;49.216;8.650;2023-04-03T23:36:07;19.00;25.50
7476;DHT22;3779;49.216;8.650;2023-04-03T23:38:56;19.00;25.30
7476;DHT22;3779;49.216;8.650;2023-04-03T23:41:42;19.00;26.40
7476;DHT22;3779;49.216;8.650;2023-04-03T23:44:28;19.00;26.20
7476;DHT22;3779;49.216;8.650;2023-04-03T23:47:14;18.90;28.90
7476;DHT22;3779;49.216;8.650;2023-04-03T23:49:59;19.00;26.60
7476;DHT22;3779;49.216;8.650;2023-04-03T23:52:45;19.10;27.00
7476;DHT22;3779;49.216;8.650;2023-04-03T23:55:32;19.00;26.10
7476;DHT22;3779;49.216;8.650;2023-04-03T23:58:17;19.10;25.90
